Glyfada — 9HIT6 — position and weather

sailwx.info

Track history (hours):
 
Tides and Currents Weather Stations Pressure Air Temp Water Temp Dewpoint Dewpoint Depression Visibility Wind Speed Wind Dir Waves Ship Positions

Glyfada

Last reported at 2018-Feb-15 23:38 UTC. Time now 2018-Feb-21 11:45 UTC.
Position N 28°05' W 013°39'.

Length 186 m; draft 10.1 m.

Type: Cargo ship. MMSI: 248540000.

Date/timePositionNaut miles runAvg speedWind from/ knotsBaromVisibWave heightAir tempDewpointWater temp
2018-Feb-15 23:38N 28°05' W 013°39'213.1
2018-Feb-15 23:30N 28°06' W 013°38'713.6
2018-Feb-15 23:01N 28°12' W 013°34'713.6
2018-Feb-15 22:29N 28°18' W 013°29'613.3
2018-Feb-15 22:00N 28°23' W 013°25'713.3
2018-Feb-15 21:28N 28°29' W 013°20'713.5
2018-Feb-15 20:58N 28°34' W 013°16'713.4
2018-Feb-15 20:28N 28°40' W 013°11'613.5
2018-Feb-15 20:00N 28°45' W 013°07'913.5
2018-Feb-15 19:21N 28°52' W 013°02'513.6
2018-Feb-15 19:00N 28°56' W 012°58'713.9
2018-Feb-15 18:29N 29°02' W 012°54'713.6
2018-Feb-15 18:00N 29°07' W 012°50'713.3
2018-Feb-15 17:29N 29°13' W 012°45'613.6
2018-Feb-15 17:00N 29°18' W 012°41'813.8
2018-Feb-15 16:26N 29°24' W 012°35'4813.1
2018-Feb-15 12:47N 30°02' W 012°02'413.4
2018-Feb-15 12:28N 30°06' W 011°59'613.4
2018-Feb-15 12:00N 30°11' W 011°55'2813.3
2018-Feb-15 09:56N 30°33' W 011°36'613.4
2018-Feb-15 09:29N 30°38' W 011°32'1013.5
2018-Feb-15 08:44N 30°47' W 011°25'313.5
2018-Feb-15 08:30N 30°49' W 011°23'2013.2
2018-Feb-15 07:00N 31°05' W 011°09'713.5
2018-Feb-15 06:30N 31°11' W 011°05'713.7
2018-Feb-15 05:59N 31°16' W 010°60'713.7
2018-Feb-15 05:30N 31°22' W 010°55'713.6
2018-Feb-15 05:00N 31°27' W 010°51'713.6
2018-Feb-15 04:30N 31°33' W 010°46'713.5
2018-Feb-15 04:00N 31°38' W 010°41'713.3
2018-Feb-15 03:30N 31°44' W 010°36'613.1
2018-Feb-15 03:00N 31°49' W 010°32'1113.2
2018-Feb-15 02:09N 31°58' W 010°24'213.3
2018-Feb-15 01:59N 31°60' W 010°23'33712.7
2018-Feb-13 23:21N 35°58' W 005°35'411.4
2018-Feb-13 23:00N 35°59' W 005°30'510.6
2018-Feb-13 22:30N 36°02' W 005°24'5 9.9
2018-Feb-13 22:00N 36°07' W 005°24'3 5.8
2018-Feb-13 21:30N 36°09' W 005°25'0 0.5
2018-Feb-13 20:58N 36°09' W 005°25'0 0.0
2018-Feb-13 20:28N 36°09' W 005°25'0 0.0
2018-Feb-13 19:25N 36°09' W 005°25'0 0.0
2018-Feb-13 16:07N 36°09' W 005°25'0 0.0
2018-Feb-13 15:49N 36°09' W 005°25'0 0.0
2018-Feb-13 15:19N 36°09' W 005°25'1 0.7
2018-Feb-13 13:50N 36°09' W 005°24'1 2.8
2018-Feb-13 13:27N 36°08' W 005°23'0 0.7
2018-Feb-13 13:00N 36°07' W 005°23'1 2.0
2018-Feb-13 12:30N 36°06' W 005°23'3 6.9
2018-Feb-13 12:00N 36°05' W 005°19'3 0.9
2018-Feb-13 08:52N 36°05' W 005°16'0 0.4
2018-Feb-13 08:28N 36°05' W 005°16'1 1.0
2018-Feb-13 07:58N 36°05' W 005°16'1 2.0
2018-Feb-13 07:30N 36°05' W 005°18'2 3.7
2018-Feb-13 07:00N 36°05' W 005°20'3 5.1
2018-Feb-13 06:30N 36°07' W 005°22'1 1.3
2018-Feb-13 05:53N 36°07' W 005°22'0 0.1
2018-Feb-13 05:29N 36°07' W 005°22'0 0.0
2018-Feb-13 04:56N 36°07' W 005°22'0 0.0
2018-Feb-13 04:25N 36°07' W 005°22'0 0.1
2018-Feb-13 03:58N 36°07' W 005°22'0 0.0
2018-Feb-13 03:28N 36°07' W 005°22'0 0.0
2018-Feb-13 03:00N 36°08' W 005°22'0 0.0
2018-Feb-13 02:30N 36°08' W 005°22'0 0.0
2018-Feb-13 02:00N 36°07' W 005°22'0 0.0
2018-Feb-13 01:30N 36°07' W 005°22'0 0.0
2018-Feb-13 01:00N 36°08' W 005°22'0 0.0
2018-Feb-13 00:30N 36°08' W 005°22'0 0.0
2018-Feb-13 00:00N 36°08' W 005°22'0 0.1
2018-Feb-12 23:30N 36°08' W 005°22'0 0.0
2018-Feb-12 23:00N 36°08' W 005°22'0 0.0
2018-Feb-12 22:30N 36°08' W 005°22'0 0.1
2018-Feb-12 22:00N 36°08' W 005°22'0 0.0
2018-Feb-12 21:30N 36°08' W 005°22'0 0.0
2018-Feb-12 21:00N 36°08' W 005°22'0 0.0
2018-Feb-12 20:30N 36°08' W 005°22'0 0.2
2018-Feb-12 20:00N 36°08' W 005°22'2 3.8
2018-Feb-12 19:30N 36°06' W 005°22'2 3.5
2018-Feb-12 19:00N 36°05' W 005°20'1 1.5
2018-Feb-12 18:30N 36°05' W 005°19'3 5.5
2018-Feb-12 17:59N 36°06' W 005°15'21311.3
2018-Feb-11 23:11N 37°14' W 001°04'912.7
2018-Feb-11 22:27N 37°20' W 000°55'1012.4
2018-Feb-11 21:37N 37°27' W 000°45'211.9
2018-Feb-11 21:28N 37°28' W 000°43'511.7
2018-Feb-11 21:00N 37°31' W 000°38'611.4
2018-Feb-11 20:30N 37°35' W 000°32'511.1
2018-Feb-11 20:00N 37°40' W 000°29'611.0
2018-Feb-11 19:30N 37°44' W 000°25'611.0
2018-Feb-11 18:56N 37°50' W 000°20'511.1
2018-Feb-11 18:30N 37°53' W 000°17'610.9
2018-Feb-11 18:00N 37°58' W 000°14'511.0
2018-Feb-11 17:30N 38°03' W 000°10'911.8
2018-Feb-11 16:42N 38°11' W 000°03'412.0
2018-Feb-11 16:23N 38°14' W 000°01'18212.6
2018-Feb-11 01:55N 40°53' E 001°54'612.6
2018-Feb-11 01:26N 40°58' E 001°58'612.6
2018-Feb-11 01:00N 41°03' E 002°01'612.7
2018-Feb-11 00:30N 41°09' E 002°05'713.0
2018-Feb-11 00:00N 41°15' E 002°09'5 9.6
2018-Feb-10 23:30N 41°19' E 002°10'2 4.1
2018-Feb-10 22:58N 41°21' E 002°10'0 0.1
2018-Feb-10 22:30N 41°22' E 002°10'0 0.0
2018-Feb-10 22:00N 41°22' E 002°10'0 0.0
2018-Feb-10 21:30N 41°22' E 002°10'0 0.0
2018-Feb-10 21:00N 41°22' E 002°10'0 0.0
2018-Feb-10 20:30N 41°22' E 002°10'0 0.0
2018-Feb-10 19:59N 41°22' E 002°10'0 0.0
2018-Feb-10 19:30N 41°22' E 002°10'0 0.0
2018-Feb-10 19:00N 41°22' E 002°10'0 0.0
2018-Feb-10 18:30N 41°22' E 002°10'0 0.0
2018-Feb-10 18:00N 41°22' E 002°10'0 0.0
2018-Feb-10 17:30N 41°22' E 002°10'0 0.0
2018-Feb-10 17:00N 41°22' E 002°10'0 0.0
2018-Feb-10 16:30N 41°22' E 002°10'0 0.0
2018-Feb-10 16:00N 41°22' E 002°10'0 0.0
2018-Feb-10 15:30N 41°22' E 002°10'0 0.0
2018-Feb-10 15:00N 41°22' E 002°10'0 0.0
2018-Feb-10 14:30N 41°22' E 002°10'0 0.0
2018-Feb-10 14:00N 41°22' E 002°10'0 0.0
2018-Feb-10 13:30N 41°22' E 002°10'0 0.0
2018-Feb-10 13:00N 41°22' E 002°10'0 0.0
2018-Feb-10 12:29N 41°22' E 002°10'0 0.0
2018-Feb-10 11:57N 41°22' E 002°10'0 0.0
2018-Feb-10 11:29N 41°22' E 002°10'0 0.0
2018-Feb-10 11:00N 41°22' E 002°10'0 0.0
2018-Feb-10 10:30N 41°22' E 002°10'0 0.0
2018-Feb-10 10:00N 41°22' E 002°10'0 0.0
2018-Feb-10 09:30N 41°22' E 002°10'0 0.0
2018-Feb-10 09:00N 41°22' E 002°10'0 0.0
2018-Feb-10 08:29N 41°22' E 002°10'0 0.0
2018-Feb-10 07:58N 41°22' E 002°10'0 0.0
2018-Feb-10 07:30N 41°22' E 002°10'0 0.0
2018-Feb-10 07:00N 41°22' E 002°10'0 0.0
2018-Feb-10 06:30N 41°22' E 002°10'0 0.0
2018-Feb-10 06:00N 41°22' E 002°10'0 0.0
2018-Feb-10 05:30N 41°22' E 002°10'0 0.0
2018-Feb-10 05:00N 41°22' E 002°10'0 0.0
2018-Feb-10 04:30N 41°22' E 002°10'0 0.0
2018-Feb-10 04:00N 41°22' E 002°10'0 0.0
2018-Feb-10 03:30N 41°22' E 002°10'0 0.0
2018-Feb-10 03:00N 41°22' E 002°10'0 0.0
2018-Feb-10 02:30N 41°22' E 002°10'0 0.0
2018-Feb-10 02:00N 41°22' E 002°10'0 0.0
2018-Feb-10 01:30N 41°22' E 002°10'0 0.0
2018-Feb-10 01:00N 41°22' E 002°10'0 0.0
2018-Feb-10 00:30N 41°22' E 002°10'0 0.0
2018-Feb-10 00:00N 41°22' E 002°10'0 0.0
2018-Feb-09 23:30N 41°22' E 002°10'0 0.0
2018-Feb-09 23:00N 41°22' E 002°10'0 0.0
2018-Feb-09 22:46N 41°22' E 002°10'0 0.0
2018-Feb-09 22:30N 41°22' E 002°10'0 0.0
2018-Feb-09 22:00N 41°22' E 002°10'0 0.0
2018-Feb-09 21:30N 41°22' E 002°10'0 0.0
2018-Feb-09 21:00N 41°22' E 002°10'0 0.0
2018-Feb-09 20:30N 41°22' E 002°10'0 0.0
2018-Feb-09 20:00N 41°22' E 002°10'0 0.0
2018-Feb-09 19:30N 41°22' E 002°10'0 0.0
2018-Feb-09 19:00N 41°22' E 002°10'0 0.0
2018-Feb-09 18:30N 41°22' E 002°10'0 0.0
2018-Feb-09 18:00N 41°22' E 002°10'0 0.0
2018-Feb-09 17:30N 41°22' E 002°10'0 0.0
2018-Feb-09 16:30N 41°22' E 002°10'0 0.0
2018-Feb-09 13:00N 41°22' E 002°10'0 0.0
2018-Feb-09 12:30N 41°22' E 002°10'0 0.0
2018-Feb-09 11:30N 41°22' E 002°10'0 0.0
2018-Feb-09 10:30N 41°22' E 002°10'0 0.0
2018-Feb-09 10:00N 41°22' E 002°10'0 0.0
2018-Feb-09 09:30N 41°22' E 002°10'0 0.0
2018-Feb-09 08:30N 41°22' E 002°10'0 0.0
2018-Feb-09 08:00N 41°22' E 002°10'0 0.0
2018-Feb-09 07:30N 41°22' E 002°10'0 0.0
2018-Feb-09 06:30N 41°22' E 002°10'0 0.0
2018-Feb-09 06:00N 41°22' E 002°10'0 0.0
2018-Feb-09 05:30N 41°22' E 002°10'0 0.0
2018-Feb-09 05:00N 41°22' E 002°10'0 0.0
2018-Feb-09 04:30N 41°22' E 002°10'0 0.0
2018-Feb-09 04:00N 41°22' E 002°10'0 0.0
2018-Feb-09 03:30N 41°22' E 002°10'0 0.0
2018-Feb-09 03:00N 41°22' E 002°10'0 0.0
2018-Feb-09 02:30N 41°22' E 002°10'0 0.0
2018-Feb-09 02:00N 41°22' E 002°10'0 0.0
2018-Feb-09 00:30N 41°22' E 002°10'0 0.0
2018-Feb-09 00:00N 41°22' E 002°10'0 0.0
2018-Feb-08 23:00N 41°22' E 002°10'0 0.0
2018-Feb-08 22:00N 41°22' E 002°10'0 0.0
2018-Feb-08 21:30N 41°22' E 002°10'0 0.0
2018-Feb-08 20:30N 41°22' E 002°10'0 0.0
2018-Feb-08 20:00N 41°22' E 002°10'0 0.0
2018-Feb-08 19:30N 41°22' E 002°10'0 0.0
2018-Feb-08 19:00N 41°22' E 002°10'0 0.0
2018-Feb-08 18:00N 41°22' E 002°10'0 0.0
2018-Feb-08 17:00N 41°22' E 002°10'0 0.0
2018-Feb-08 15:30N 41°22' E 002°10'0 0.0
2018-Feb-08 15:00N 41°22' E 002°10'0 0.0
2018-Feb-08 14:30N 41°22' E 002°10'0 0.0
2018-Feb-08 13:00N 41°22' E 002°10'0 0.0
2018-Feb-08 12:30N 41°22' E 002°10'0 0.0
2018-Feb-08 11:30N 41°22' E 002°10'0 0.0
2018-Feb-08 09:00N 41°22' E 002°10'0 0.0
2018-Feb-08 08:00N 41°22' E 002°10'0 0.0
2018-Feb-08 03:30N 41°22' E 002°10'0 0.0
2018-Feb-08 01:30N 41°22' E 002°10'0 0.0
2018-Feb-08 01:00N 41°22' E 002°10'0 0.0
2018-Feb-08 00:30N 41°22' E 002°10'0 0.0
2018-Feb-08 00:01N 41°22' E 002°10'0 0.0
2018-Feb-07 23:30N 41°22' E 002°10'0 0.0
2018-Feb-07 23:00N 41°22' E 002°10'0 0.0
2018-Feb-07 22:30N 41°22' E 002°10'0 0.0
2018-Feb-07 22:00N 41°22' E 002°10'0 0.0
2018-Feb-07 21:31N 41°22' E 002°10'16 1.3
2018-Feb-07 09:30N 41°11' E 002°26'510.4
2018-Feb-07 09:00N 41°09' E 002°32'315 9.6
2018-Feb-05 23:59N 38°28' E 008°26'  
Track history (hours):
 
Tides and Currents Weather Stations Pressure Air Temp Water Temp Dewpoint Dewpoint Depression Visibility Wind Speed Wind Dir Waves Ship Positions

Glyfada

Last reported at 2018-Feb-15 23:38 UTC. Time now 2018-Feb-21 11:45 UTC.
Position N 28°05' W 013°39'.

Length 186 m; draft 10.1 m.

Type: Cargo ship. MMSI: 248540000.

Date/timePositionNaut miles runAvg speedWind from/ knotsBaromVisibWave heightAir tempDewpointWater temp
2018-Feb-15 23:38N 28°05' W 013°39'213.1
2018-Feb-15 23:30N 28°06' W 013°38'713.6
2018-Feb-15 23:01N 28°12' W 013°34'713.6
2018-Feb-15 22:29N 28°18' W 013°29'613.3
2018-Feb-15 22:00N 28°23' W 013°25'713.3
2018-Feb-15 21:28N 28°29' W 013°20'713.5
2018-Feb-15 20:58N 28°34' W 013°16'713.4
2018-Feb-15 20:28N 28°40' W 013°11'613.5
2018-Feb-15 20:00N 28°45' W 013°07'913.5
2018-Feb-15 19:21N 28°52' W 013°02'513.6
2018-Feb-15 19:00N 28°56' W 012°58'713.9
2018-Feb-15 18:29N 29°02' W 012°54'713.6
2018-Feb-15 18:00N 29°07' W 012°50'713.3
2018-Feb-15 17:29N 29°13' W 012°45'613.6
2018-Feb-15 17:00N 29°18' W 012°41'813.8
2018-Feb-15 16:26N 29°24' W 012°35'4813.1
2018-Feb-15 12:47N 30°02' W 012°02'413.4
2018-Feb-15 12:28N 30°06' W 011°59'613.4
2018-Feb-15 12:00N 30°11' W 011°55'2813.3
2018-Feb-15 09:56N 30°33' W 011°36'613.4
2018-Feb-15 09:29N 30°38' W 011°32'1013.5
2018-Feb-15 08:44N 30°47' W 011°25'313.5
2018-Feb-15 08:30N 30°49' W 011°23'2013.2
2018-Feb-15 07:00N 31°05' W 011°09'713.5
2018-Feb-15 06:30N 31°11' W 011°05'713.7
2018-Feb-15 05:59N 31°16' W 010°60'713.7
2018-Feb-15 05:30N 31°22' W 010°55'713.6
2018-Feb-15 05:00N 31°27' W 010°51'713.6
2018-Feb-15 04:30N 31°33' W 010°46'713.5
2018-Feb-15 04:00N 31°38' W 010°41'713.3
2018-Feb-15 03:30N 31°44' W 010°36'613.1
2018-Feb-15 03:00N 31°49' W 010°32'1113.2
2018-Feb-15 02:09N 31°58' W 010°24'213.3
2018-Feb-15 01:59N 31°60' W 010°23'33712.7
2018-Feb-13 23:21N 35°58' W 005°35'411.4
2018-Feb-13 23:00N 35°59' W 005°30'510.6
2018-Feb-13 22:30N 36°02' W 005°24'5 9.9
2018-Feb-13 22:00N 36°07' W 005°24'3 5.8
2018-Feb-13 21:30N 36°09' W 005°25'0 0.5
2018-Feb-13 20:58N 36°09' W 005°25'0 0.0
2018-Feb-13 20:28N 36°09' W 005°25'0 0.0
2018-Feb-13 19:25N 36°09' W 005°25'0 0.0
2018-Feb-13 16:07N 36°09' W 005°25'0 0.0
2018-Feb-13 15:49N 36°09' W 005°25'0 0.0
2018-Feb-13 15:19N 36°09' W 005°25'1 0.7
2018-Feb-13 13:50N 36°09' W 005°24'1 2.8
2018-Feb-13 13:27N 36°08' W 005°23'0 0.7
2018-Feb-13 13:00N 36°07' W 005°23'1 2.0
2018-Feb-13 12:30N 36°06' W 005°23'3 6.9
2018-Feb-13 12:00N 36°05' W 005°19'3 0.9
2018-Feb-13 08:52N 36°05' W 005°16'0 0.4
2018-Feb-13 08:28N 36°05' W 005°16'1 1.0
2018-Feb-13 07:58N 36°05' W 005°16'1 2.0
2018-Feb-13 07:30N 36°05' W 005°18'2 3.7
2018-Feb-13 07:00N 36°05' W 005°20'3 5.1
2018-Feb-13 06:30N 36°07' W 005°22'1 1.3
2018-Feb-13 05:53N 36°07' W 005°22'0 0.1
2018-Feb-13 05:29N 36°07' W 005°22'0 0.0
2018-Feb-13 04:56N 36°07' W 005°22'0 0.0
2018-Feb-13 04:25N 36°07' W 005°22'0 0.1
2018-Feb-13 03:58N 36°07' W 005°22'0 0.0
2018-Feb-13 03:28N 36°07' W 005°22'0 0.0
2018-Feb-13 03:00N 36°08' W 005°22'0 0.0
2018-Feb-13 02:30N 36°08' W 005°22'0 0.0
2018-Feb-13 02:00N 36°07' W 005°22'0 0.0
2018-Feb-13 01:30N 36°07' W 005°22'0 0.0
2018-Feb-13 01:00N 36°08' W 005°22'0 0.0
2018-Feb-13 00:30N 36°08' W 005°22'0 0.0
2018-Feb-13 00:00N 36°08' W 005°22'0 0.1
2018-Feb-12 23:30N 36°08' W 005°22'0 0.0
2018-Feb-12 23:00N 36°08' W 005°22'0 0.0
2018-Feb-12 22:30N 36°08' W 005°22'0 0.1
2018-Feb-12 22:00N 36°08' W 005°22'0 0.0
2018-Feb-12 21:30N 36°08' W 005°22'0 0.0
2018-Feb-12 21:00N 36°08' W 005°22'0 0.0
2018-Feb-12 20:30N 36°08' W 005°22'0 0.2
2018-Feb-12 20:00N 36°08' W 005°22'2 3.8
2018-Feb-12 19:30N 36°06' W 005°22'2 3.5
2018-Feb-12 19:00N 36°05' W 005°20'1 1.5
2018-Feb-12 18:30N 36°05' W 005°19'3 5.5
2018-Feb-12 17:59N 36°06' W 005°15'21311.3
2018-Feb-11 23:11N 37°14' W 001°04'912.7
2018-Feb-11 22:27N 37°20' W 000°55'1012.4
2018-Feb-11 21:37N 37°27' W 000°45'211.9
2018-Feb-11 21:28N 37°28' W 000°43'511.7
2018-Feb-11 21:00N 37°31' W 000°38'611.4
2018-Feb-11 20:30N 37°35' W 000°32'511.1
2018-Feb-11 20:00N 37°40' W 000°29'611.0
2018-Feb-11 19:30N 37°44' W 000°25'611.0
2018-Feb-11 18:56N 37°50' W 000°20'511.1
2018-Feb-11 18:30N 37°53' W 000°17'610.9
2018-Feb-11 18:00N 37°58' W 000°14'511.0
2018-Feb-11 17:30N 38°03' W 000°10'911.8
2018-Feb-11 16:42N 38°11' W 000°03'412.0
2018-Feb-11 16:23N 38°14' W 000°01'18212.6
2018-Feb-11 01:55N 40°53' E 001°54'612.6
2018-Feb-11 01:26N 40°58' E 001°58'612.6
2018-Feb-11 01:00N 41°03' E 002°01'612.7
2018-Feb-11 00:30N 41°09' E 002°05'713.0
2018-Feb-11 00:00N 41°15' E 002°09'5 9.6
2018-Feb-10 23:30N 41°19' E 002°10'2 4.1
2018-Feb-10 22:58N 41°21' E 002°10'0 0.1
2018-Feb-10 22:30N 41°22' E 002°10'0 0.0
2018-Feb-10 22:00N 41°22' E 002°10'0 0.0
2018-Feb-10 21:30N 41°22' E 002°10'0 0.0
2018-Feb-10 21:00N 41°22' E 002°10'0 0.0
2018-Feb-10 20:30N 41°22' E 002°10'0 0.0
2018-Feb-10 19:59N 41°22' E 002°10'0 0.0
2018-Feb-10 19:30N 41°22' E 002°10'0 0.0
2018-Feb-10 19:00N 41°22' E 002°10'0 0.0
2018-Feb-10 18:30N 41°22' E 002°10'0 0.0
2018-Feb-10 18:00N 41°22' E 002°10'0 0.0
2018-Feb-10 17:30N 41°22' E 002°10'0 0.0
2018-Feb-10 17:00N 41°22' E 002°10'0 0.0
2018-Feb-10 16:30N 41°22' E 002°10'0 0.0
2018-Feb-10 16:00N 41°22' E 002°10'0 0.0
2018-Feb-10 15:30N 41°22' E 002°10'0 0.0
2018-Feb-10 15:00N 41°22' E 002°10'0 0.0
2018-Feb-10 14:30N 41°22' E 002°10'0 0.0
2018-Feb-10 14:00N 41°22' E 002°10'0 0.0
2018-Feb-10 13:30N 41°22' E 002°10'0 0.0
2018-Feb-10 13:00N 41°22' E 002°10'0 0.0
2018-Feb-10 12:29N 41°22' E 002°10'0 0.0
2018-Feb-10 11:57N 41°22' E 002°10'0 0.0
2018-Feb-10 11:29N 41°22' E 002°10'0 0.0
2018-Feb-10 11:00N 41°22' E 002°10'0 0.0
2018-Feb-10 10:30N 41°22' E 002°10'0 0.0
2018-Feb-10 10:00N 41°22' E 002°10'0 0.0
2018-Feb-10 09:30N 41°22' E 002°10'0 0.0
2018-Feb-10 09:00N 41°22' E 002°10'0 0.0
2018-Feb-10 08:29N 41°22' E 002°10'0 0.0
2018-Feb-10 07:58N 41°22' E 002°10'0 0.0
2018-Feb-10 07:30N 41°22' E 002°10'0 0.0
2018-Feb-10 07:00N 41°22' E 002°10'0 0.0
2018-Feb-10 06:30N 41°22' E 002°10'0 0.0
2018-Feb-10 06:00N 41°22' E 002°10'0 0.0
2018-Feb-10 05:30N 41°22' E 002°10'0 0.0
2018-Feb-10 05:00N 41°22' E 002°10'0 0.0
2018-Feb-10 04:30N 41°22' E 002°10'0 0.0
2018-Feb-10 04:00N 41°22' E 002°10'0 0.0
2018-Feb-10 03:30N 41°22' E 002°10'0 0.0
2018-Feb-10 03:00N 41°22' E 002°10'0 0.0
2018-Feb-10 02:30N 41°22' E 002°10'0 0.0
2018-Feb-10 02:00N 41°22' E 002°10'0 0.0
2018-Feb-10 01:30N 41°22' E 002°10'0 0.0
2018-Feb-10 01:00N 41°22' E 002°10'0 0.0
2018-Feb-10 00:30N 41°22' E 002°10'0 0.0
2018-Feb-10 00:00N 41°22' E 002°10'0 0.0
2018-Feb-09 23:30N 41°22' E 002°10'0 0.0
2018-Feb-09 23:00N 41°22' E 002°10'0 0.0
2018-Feb-09 22:46N 41°22' E 002°10'0 0.0
2018-Feb-09 22:30N 41°22' E 002°10'0 0.0
2018-Feb-09 22:00N 41°22' E 002°10'0 0.0
2018-Feb-09 21:30N 41°22' E 002°10'0 0.0
2018-Feb-09 21:00N 41°22' E 002°10'0 0.0
2018-Feb-09 20:30N 41°22' E 002°10'0 0.0
2018-Feb-09 20:00N 41°22' E 002°10'0 0.0
2018-Feb-09 19:30N 41°22' E 002°10'0 0.0
2018-Feb-09 19:00N 41°22' E 002°10'0 0.0
2018-Feb-09 18:30N 41°22' E 002°10'0 0.0
2018-Feb-09 18:00N 41°22' E 002°10'0 0.0
2018-Feb-09 17:30N 41°22' E 002°10'0 0.0
2018-Feb-09 16:30N 41°22' E 002°10'0 0.0
2018-Feb-09 13:00N 41°22' E 002°10'0 0.0
2018-Feb-09 12:30N 41°22' E 002°10'0 0.0
2018-Feb-09 11:30N 41°22' E 002°10'0 0.0
2018-Feb-09 10:30N 41°22' E 002°10'0 0.0
2018-Feb-09 10:00N 41°22' E 002°10'0 0.0
2018-Feb-09 09:30N 41°22' E 002°10'0 0.0
2018-Feb-09 08:30N 41°22' E 002°10'0 0.0
2018-Feb-09 08:00N 41°22' E 002°10'0 0.0
2018-Feb-09 07:30N 41°22' E 002°10'0 0.0
2018-Feb-09 06:30N 41°22' E 002°10'0 0.0
2018-Feb-09 06:00N 41°22' E 002°10'0 0.0
2018-Feb-09 05:30N 41°22' E 002°10'0 0.0
2018-Feb-09 05:00N 41°22' E 002°10'0 0.0
2018-Feb-09 04:30N 41°22' E 002°10'0 0.0
2018-Feb-09 04:00N 41°22' E 002°10'0 0.0
2018-Feb-09 03:30N 41°22' E 002°10'0 0.0
2018-Feb-09 03:00N 41°22' E 002°10'0 0.0
2018-Feb-09 02:30N 41°22' E 002°10'0 0.0
2018-Feb-09 02:00N 41°22' E 002°10'0 0.0
2018-Feb-09 00:30N 41°22' E 002°10'0 0.0
2018-Feb-09 00:00N 41°22' E 002°10'0 0.0
2018-Feb-08 23:00N 41°22' E 002°10'0 0.0
2018-Feb-08 22:00N 41°22' E 002°10'0 0.0
2018-Feb-08 21:30N 41°22' E 002°10'0 0.0
2018-Feb-08 20:30N 41°22' E 002°10'0 0.0
2018-Feb-08 20:00N 41°22' E 002°10'0 0.0
2018-Feb-08 19:30N 41°22' E 002°10'0 0.0
2018-Feb-08 19:00N 41°22' E 002°10'0 0.0
2018-Feb-08 18:00N 41°22' E 002°10'0 0.0
2018-Feb-08 17:00N 41°22' E 002°10'0 0.0
2018-Feb-08 15:30N 41°22' E 002°10'0 0.0
2018-Feb-08 15:00N 41°22' E 002°10'0 0.0
2018-Feb-08 14:30N 41°22' E 002°10'0 0.0
2018-Feb-08 13:00N 41°22' E 002°10'0 0.0
2018-Feb-08 12:30N 41°22' E 002°10'0 0.0
2018-Feb-08 11:30N 41°22' E 002°10'0 0.0
2018-Feb-08 09:00N 41°22' E 002°10'0 0.0
2018-Feb-08 08:00N 41°22' E 002°10'0 0.0
2018-Feb-08 03:30N 41°22' E 002°10'0 0.0
2018-Feb-08 01:30N 41°22' E 002°10'0 0.0
2018-Feb-08 01:00N 41°22' E 002°10'0 0.0
2018-Feb-08 00:30N 41°22' E 002°10'0 0.0
2018-Feb-08 00:01N 41°22' E 002°10'0 0.0
2018-Feb-07 23:30N 41°22' E 002°10'0 0.0
2018-Feb-07 23:00N 41°22' E 002°10'0 0.0
2018-Feb-07 22:30N 41°22' E 002°10'0 0.0
2018-Feb-07 22:00N 41°22' E 002°10'0 0.0
2018-Feb-07 21:31N 41°22' E 002°10'16 1.3
2018-Feb-07 09:30N 41°11' E 002°26'510.4
2018-Feb-07 09:00N 41°09' E 002°32'315 9.6
2018-Feb-05 23:59N 38°28' E 008°26'  

Dump ship's entire track history